Weather observations for the past three days for
Caldwell - Caldwell Industrial Airport
Metric (Imperial)
Date Time (mdt) Wind (kph) Vis. (km) Weather Sky Cond. Temperature (ºC) Relative Humidity Wind Chill (°C) Heat Index (°C) Pressure Precipitation (cm)
Air Dwpt 6 hour altimeter (cm) sea level (mb) 1 hr 3 hr 6 hr
Max. Min.
05 21:56 W 6 16.09 NULL NULL 19.4 8.9 51% 76.05 1012.8
05 20:56 NW 7 16.09 NULL NULL 20 8.9 49% 76.02 1012.7
05 19:56 W 13 16.09 NULL NULL 22.8 8.3 40% 76.02 1012.7
05 18:56 Calm 16.09 NULL NULL 24.4 8.3 36% 25 76.02 1012.6
05 17:56 W 7 16.09 NULL NULL 23.9 9.4 25 17.2 40% 25 76.05 1012.7
05 16:56 Vrbl 7 16.09 NULL NULL 23.9 8.9 39% 25 76.07 1013.0
05 15:56 NW 6 16.09 NULL NULL 23.9 9.4 40% 25 76.12 1013.8
05 14:56 Calm 16.09 NULL NULL 22.2 10 46% 76.17 1014.6
05 13:56 Calm 16.09 NULL NULL 21.1 9.4 47% 76.23 1015.2
05 11:56 Calm 16.09 NULL NULL 17.2 9.4 17.2 7.8 60% 76.33 1016.9
05 10:56 Calm 16.09 NULL NULL 15 8.3 64% 76.33 1017.2
05 09:56 W 9 16.09 NULL NULL 13.3 7.8 70% 76.33 1017.2
05 08:56 NW 6 16.09 NULL NULL 11.1 8.9 86% 76.33 1017.5
05 07:56 Calm 9.66 Fog/Mist NULL 8.3 7.8 97% 76.3 1017.1
05 06:56 Calm 9.66 Fog/Mist NULL 8.3 8.3 100% 76.28 1016.5
05 05:56 Calm 11.27 NULL NULL 8.9 8.3 12.8 8.9 96% 76.25 1016.5
05 04:56 SW 7 16.09 NULL NULL 10 8.9 93% 9 76.25 1016.2
05 03:56 W 6 16.09 NULL NULL 10.6 8.9 89% 76.23 1016.0
05 02:56 W 6 16.09 NULL NULL 11.7 9.4 86% 76.2 1015.6
05 01:56 Calm 16.09 NULL NULL 12.2 10 87% 76.2 1015.6
05 00:56 W 7 16.09 Light Rain NULL 12.8 10 83% 76.17 1015.0
04 23:56 W 13 16.09 Light Rain NULL 12.8 10 17.8 12.8 83% 76.1 1014.4
04 22:56 W 7 16.09 NULL NULL 13.3 10 81% 76.12 1014.7
04 21:56 SW 11 16.09 NULL NULL 12.8 9.4 80% 76.12 1014.9
04 20:56 W 11 16.09 NULL NULL 13.3 8.3 72% 76.1 1014.5
04 19:56 W 11 16.09 NULL NULL 15.6 8.9 65% 76.12 1014.7
04 18:56 Vrbl 6 16.09 NULL NULL 17.8 8.9 56% 76.12 1014.6
04 17:56 Calm 16.09 NULL NULL 15.6 8.3 16.1 11.7 62% 76.17 1015.3
04 16:56 NE 7 16.09 NULL NULL 15 8.9 67% 76.17 1015.4
04 15:56 Calm 16.09 NULL NULL 13.9 8.3 69% 76.23 1016.0
04 14:56 Calm 16.09 Light Rain NULL 13.9 7.8 67% 76.2 1015.8
04 13:56 NE 7 16.09 Light Rain NULL 13.3 7.2 67% 76.17 1015.6
04 12:56 Calm 16.09 NULL NULL 13.3 7.2 67% 76.23 1016.2
04 11:56 Calm 16.09 NULL NULL 11.7 8.3 12.2 7.8 80% 76.23 1016.4
04 10:56 Calm 16.09 NULL NULL 11.1 8.3 83% 76.2 1016.0
04 09:56 Calm 16.09 NULL NULL 10.6 8.9 89% 76.15 1015.5
04 08:56 Calm 16.09 NULL NULL 9.4 8.3 93% 76.15 1015.2
04 07:56 Calm 16.09 NULL NULL 8.9 7.8 93% 76.1 1014.3
04 06:56 Calm 16.09 NULL NULL 8.3 7.8 97% 76.05 1013.4
04 05:56 N 7 16.09 NULL NULL 8.9 7.8 9.4 8.3 93% 8 76.05 1013.2 0.3
04 04:56 N 11 16.09 NULL NULL 8.9 8.3 96% 7 76 1012.6
04 03:56 W 7 16.09 NULL NULL 8.9 8.3 96% 8 76 1012.3
04 02:56 W 15 16.09 Light Rain NULL 8.9 8.3 96% 7 75.97 1012.0 0.1 0.3
04 01:56 S 7 16.09 Light Rain NULL 8.9 8.3 96% 8 75.95 1012.0 0.05
04 00:56 W 7 16.09 Rain NULL 8.3 7.8 97% 7 75.97 1012.3 0.15
03 23:56 W 9 16.09 Light Rain NULL 8.9 8.3 18.9 8.9 96% 8 76 1012.6 0.08 0.13
03 22:56 W 15 16.09 Light Rain NULL 8.9 7.8 93% 7 75.97 1012.3 0.05
03 21:56 W 33 G 52 16.09 Light Rain and Breezy NULL 8.9 6.7 86% 5 75.9 1011.7
03 20:56 W 57 G 65 16.09 Light Rain and Windy NULL 11.7 6.7 72% 75.77 1009.8
03 19:56 W 37 16.09 Breezy NULL 15.6 10 70% 75.62 1007.4
03 18:56 NW 17 16.09 NULL NULL 16.7 11.1 70% 75.57 1006.4
03 17:56 W 20 16.09 NULL NULL 18.9 12.8 21.7 18.3 68% 75.57 1006.4
03 16:56 W 17 16.09 NULL NULL 19.4 12.8 66% 75.62 1007.2
03 15:56 W 19 16.09 NULL NULL 20.6 12.8 61% 75.67 1007.5
03 14:56 N 7 16.09 NULL NULL 21.7 11.1 51% 75.74 1008.7
03 13:56 N 6 16.09 NULL NULL 20 11.1 57% 75.82 1009.7
03 12:56 Calm 16.09 NULL NULL 20 11.1 57% 75.92 1011.0
03 11:56 Calm 16.09 NULL NULL 18.3 10.6 18.3 13.3 61% 75.97 1011.7 0.03
03 10:56 SE 6 16.09 NULL NULL 17.2 11.7 70% 76 1012.1
03 09:56 Calm 16.09 Light Rain NULL 15.6 11.7 78% 76 1012.2 0.03
03 08:56 E 13 16.09 NULL NULL 14.4 11.7 84% 76 1012.1
03 07:56 SE 13 16.09 NULL NULL 13.9 11.7 87% 75.97 1011.5
03 06:56 SE 11 16.09 Light Rain NULL 13.9 12.2 90% 75.95 1011.1
03 05:56 E 11 16.09 Light Rain BKN075 OVC090 13.9 11.7 16.7 13.3 87% 75.92 1010.7 0.13
03 04:56 E 7 16.09 Overcast OVC080 13.9 12.2 90% 75.92 1010.8 0.03
03 03:56 NE 9 16.09 Light Rain FEW055 BKN070 BKN080 13.3 11.7 90% 75.95 1010.9 0.03
03 02:56 NE 11 16.09 Light Rain FEW049 BKN070 OVC090 13.3 11.7 90% 75.97 1011.3 0.03 0.08
03 01:56 NE 13 16.09 Light Rain SCT060 OVC085 13.3 12.2 93% 76 1011.6 0.05
03 00:56 W 13 16.09 Light Rain CLR 14.4 11.1 81% 76 1011.8
02 23:56 W 7 16.09 Fair CLR 16.1 8.3 23.9 16.1 60% 75.97 1011.5
02 22:56 N 7 16.09 Fair CLR 16.7 7.2 54% 75.97 1011.4
Date Time (mdt) Wind (kph) Vis. (km) Weather Sky Cond. Air Dwpt Max. Min. Relative Humidity Wind Chill (°C) Heat Index (°C) altimeter (cm) sea level (mb) 1 hr 3 hr 6 hr
6 hour
Temperature (ºC) Pressure Precipitation (cm)